createdAt,value
2022-08-17T00:02:27.305Z,7.60
2022-08-17T00:07:27.158Z,6.90
2022-08-17T00:12:41.715Z,6.90
2022-08-17T00:17:27.146Z,7.80
2022-08-17T00:22:35.150Z,7.80
2022-08-17T00:27:27.231Z,6.30
2022-08-17T00:33:15.640Z,6.30
2022-08-17T00:37:27.165Z,7.00
2022-08-17T00:42:30.999Z,7.00
2022-08-17T00:47:27.167Z,6.90
2022-08-17T00:52:27.199Z,6.90
2022-08-17T00:57:27.183Z,7.80
2022-08-17T01:02:27.215Z,7.80
2022-08-17T01:07:27.199Z,6.80
2022-08-17T01:12:27.230Z,6.80
2022-08-17T01:17:27.177Z,7.00
2022-08-17T01:22:27.209Z,7.00
2022-08-17T01:27:27.366Z,7.40
2022-08-17T01:32:27.255Z,7.40
2022-08-17T01:37:27.172Z,7.40
2022-08-17T01:42:27.258Z,7.40
2022-08-17T01:47:27.193Z,6.50
2022-08-17T01:52:27.215Z,6.50
2022-08-17T01:57:27.247Z,6.90
2022-08-17T02:02:31.395Z,6.90
2022-08-17T02:07:27.203Z,6.80
2022-08-17T02:12:39.479Z,6.80
2022-08-17T02:17:27.200Z,7.30
2022-08-17T02:22:27.250Z,7.30
2022-08-17T02:27:27.280Z,7.90
2022-08-17T02:32:28.648Z,7.90
2022-08-17T02:37:27.212Z,6.70
2022-08-17T02:42:27.275Z,6.70
2022-08-17T02:47:27.233Z,7.30
2022-08-17T02:52:41.926Z,7.30
2022-08-17T02:57:27.260Z,6.40
2022-08-17T03:02:27.266Z,6.40
2022-08-17T03:07:27.244Z,7.30
2022-08-17T03:12:27.271Z,7.30
2022-08-17T03:17:27.227Z,7.50
2022-08-17T03:22:36.600Z,7.50
2022-08-17T03:27:27.304Z,7.20
2022-08-17T03:32:27.332Z,7.20
2022-08-17T03:37:27.236Z,6.50
2022-08-17T03:42:32.085Z,6.50
2022-08-17T03:47:27.233Z,8.30
2022-08-17T03:52:27.314Z,8.30
2022-08-17T03:57:27.313Z,9.30
2022-08-17T04:02:27.292Z,9.30
2022-08-17T04:07:27.249Z,7.90
2022-08-17T04:12:27.284Z,7.90
2022-08-17T04:17:27.259Z,7.30
2022-08-17T04:22:32.708Z,7.30
2022-08-17T04:27:27.323Z,7.30
2022-08-17T04:33:03.640Z,7.30
2022-08-17T04:37:27.285Z,8.50
2022-08-17T04:42:27.327Z,8.50
2022-08-17T04:47:27.287Z,10.90
2022-08-17T04:52:32.331Z,10.90
2022-08-17T04:57:27.314Z,8.80
2022-08-17T05:02:27.336Z,8.80
2022-08-17T05:07:30.941Z,8.50
2022-08-17T05:12:27.344Z,8.50
2022-08-17T05:17:27.303Z,8.80
2022-08-17T05:22:27.353Z,8.80
2022-08-17T05:27:29.816Z,7.60
2022-08-17T05:32:39.145Z,7.60
2022-08-17T05:37:27.307Z,8.20
2022-08-17T05:42:27.349Z,8.20
2022-08-17T05:47:27.586Z,7.70
2022-08-17T05:52:27.351Z,7.70
2022-08-17T05:57:27.333Z,7.60
2022-08-17T06:02:27.347Z,7.60
2022-08-17T06:07:27.387Z,7.30
2022-08-17T06:12:27.368Z,7.30
2022-08-17T06:17:27.314Z,6.60
2022-08-17T06:22:27.376Z,6.60
2022-08-17T06:27:27.427Z,6.90
2022-08-17T06:32:27.396Z,6.90
2022-08-17T06:37:27.359Z,7.10
2022-08-17T06:42:54.017Z,7.10
2022-08-17T06:47:27.353Z,7.10
2022-08-17T06:52:37.606Z,7.10
2022-08-17T07:02:29.523Z,7.50
2022-08-17T07:07:27.363Z,7.00
2022-08-17T07:12:27.402Z,7.00
2022-08-17T07:17:46.780Z,7.50
2022-08-17T07:22:27.404Z,7.50
2022-08-17T07:27:27.354Z,6.80
2022-08-17T07:32:27.419Z,6.80
2022-08-17T07:37:27.373Z,7.90
2022-08-17T07:42:27.408Z,7.90
2022-08-17T07:47:27.434Z,7.40
2022-08-17T07:52:51.126Z,7.40
2022-08-17T07:57:30.006Z,6.40
2022-08-17T08:02:29.516Z,6.40
2022-08-17T08:07:27.378Z,6.20
2022-08-17T08:12:32.700Z,6.20
2022-08-17T08:17:27.423Z,6.50
2022-08-17T08:22:27.455Z,6.50
2022-08-17T08:27:27.409Z,6.40
2022-08-17T08:32:27.460Z,6.40
2022-08-17T08:37:33.879Z,6.00
2022-08-17T08:42:27.547Z,6.00
2022-08-17T08:47:27.449Z,6.20
2022-08-17T08:52:27.462Z,6.20
2022-08-17T08:57:32.914Z,6.70
2022-08-17T09:02:27.468Z,6.70
2022-08-17T09:07:27.422Z,6.40
2022-08-17T09:12:27.580Z,6.40
2022-08-17T09:17:27.462Z,7.00
2022-08-17T09:22:27.460Z,7.00
2022-08-17T09:27:27.430Z,7.40
2022-08-17T09:32:27.483Z,7.40
2022-08-17T09:37:27.439Z,6.90
2022-08-17T09:42:27.505Z,6.90
2022-08-17T09:47:27.503Z,6.40
2022-08-17T09:52:27.472Z,6.40
2022-08-17T09:57:30.679Z,7.40
2022-08-17T10:02:27.489Z,7.40
2022-08-17T10:07:27.451Z,7.80
2022-08-17T10:12:30.135Z,7.80
2022-08-17T10:17:27.536Z,6.70
2022-08-17T10:22:34.799Z,6.70
2022-08-17T10:27:27.507Z,7.00
2022-08-17T10:32:27.555Z,7.00
2022-08-17T10:37:27.476Z,6.30
2022-08-17T10:42:31.416Z,6.30
2022-08-17T10:47:27.547Z,7.50
2022-08-17T10:52:27.543Z,7.50
2022-08-17T10:57:27.479Z,7.90
2022-08-17T11:02:27.549Z,7.90
2022-08-17T11:07:27.487Z,7.20
2022-08-17T11:12:27.538Z,7.20
2022-08-17T11:17:27.539Z,7.10
2022-08-17T11:22:32.792Z,7.10
2022-08-17T11:27:27.500Z,7.20
2022-08-17T11:32:27.526Z,7.20
2022-08-17T11:37:27.515Z,6.50
2022-08-17T11:42:27.566Z,6.50
2022-08-17T11:47:27.576Z,6.80
2022-08-17T11:52:27.557Z,6.80
2022-08-17T11:57:27.521Z,7.20
2022-08-17T12:02:27.557Z,7.20
2022-08-17T12:07:27.529Z,6.00
2022-08-17T12:12:27.591Z,6.00
2022-08-17T12:17:41.244Z,7.30
2022-08-17T12:22:27.579Z,7.30
2022-08-17T12:27:47.700Z,6.10
2022-08-17T12:32:27.610Z,6.10
2022-08-17T12:37:27.540Z,5.10
2022-08-17T12:42:27.624Z,5.10
2022-08-17T12:47:29.448Z,5.10
2022-08-17T12:52:27.593Z,5.10
2022-08-17T12:57:27.554Z,5.10
2022-08-17T13:02:27.663Z,5.50
2022-08-17T13:07:27.608Z,5.50
2022-08-17T13:12:27.610Z,5.80
2022-08-17T13:17:27.588Z,5.80
2022-08-17T13:22:27.610Z,5.70
2022-08-17T13:27:27.592Z,5.70
2022-08-17T13:32:27.628Z,5.50
2022-08-17T13:37:27.594Z,5.50
2022-08-17T13:42:27.666Z,5.00
2022-08-17T13:47:27.621Z,5.00
2022-08-17T13:52:27.637Z,5.50
2022-08-17T13:57:27.592Z,5.50
2022-08-17T14:02:28.565Z,6.10
2022-08-17T14:07:27.603Z,6.10
2022-08-17T14:12:27.648Z,6.20
2022-08-17T14:17:27.643Z,6.20
2022-08-17T14:22:27.632Z,5.90
2022-08-17T14:27:27.610Z,5.90
2022-08-17T14:32:27.645Z,5.40
2022-08-17T14:37:27.628Z,5.40
2022-08-17T14:42:27.688Z,4.40
2022-08-17T14:47:27.663Z,4.40
2022-08-17T14:52:27.692Z,5.70
2022-08-17T14:57:34.319Z,5.70
2022-08-17T15:02:29.490Z,5.00
2022-08-17T15:07:30.810Z,5.00
2022-08-17T15:12:32.330Z,4.80
2022-08-17T15:17:43.664Z,4.80
2022-08-17T15:22:27.701Z,5.10
2022-08-17T15:27:32.784Z,5.10
2022-08-17T15:32:27.686Z,6.30
2022-08-17T15:37:27.654Z,6.30
2022-08-17T15:42:27.695Z,5.80
2022-08-17T15:47:27.682Z,5.80
2022-08-17T15:52:27.681Z,5.80
2022-08-17T15:57:27.666Z,5.80
2022-08-17T16:03:45.508Z,4.80
2022-08-17T16:07:27.675Z,4.80
2022-08-17T16:12:27.714Z,4.90
2022-08-17T16:17:39.223Z,4.90
2022-08-17T16:22:27.729Z,5.90
2022-08-17T16:27:27.676Z,5.90
2022-08-17T16:32:31.645Z,4.90
2022-08-17T16:37:27.685Z,4.90
2022-08-17T16:42:27.739Z,5.20
2022-08-17T16:47:27.724Z,5.20
2022-08-17T16:52:32.577Z,5.20
2022-08-17T16:57:27.698Z,5.20
2022-08-17T17:02:27.747Z,5.00
2022-08-17T17:07:27.703Z,5.00
2022-08-17T17:13:02.041Z,4.40
2022-08-17T17:17:27.753Z,4.40
2022-08-17T17:22:27.769Z,4.80
2022-08-17T17:27:27.701Z,4.80
2022-08-17T17:32:27.799Z,4.80
2022-08-17T17:37:27.976Z,4.80
2022-08-17T17:42:27.751Z,4.90
2022-08-17T17:47:27.746Z,4.90
2022-08-17T17:52:27.760Z,4.90
2022-08-17T17:57:27.744Z,4.90
2022-08-17T18:02:27.785Z,5.00
2022-08-17T18:07:27.778Z,5.00
2022-08-17T18:12:27.769Z,4.70
2022-08-17T18:17:28.207Z,4.70
2022-08-17T18:27:27.818Z,5.70
2022-08-17T18:32:27.863Z,4.50
2022-08-17T18:37:27.782Z,4.50
2022-08-17T18:42:27.794Z,5.30
2022-08-17T18:47:27.805Z,5.30
2022-08-17T18:52:27.760Z,4.60
2022-08-17T18:57:27.793Z,4.60
2022-08-17T19:02:45.220Z,5.60
2022-08-17T19:07:27.795Z,5.60
2022-08-17T19:12:27.776Z,4.80
2022-08-17T19:17:27.797Z,4.80
2022-08-17T19:22:29.010Z,5.50
2022-08-17T19:27:32.119Z,5.50
2022-08-17T19:32:27.850Z,6.40
2022-08-17T19:37:27.876Z,6.40
2022-08-17T19:42:27.784Z,5.30
2022-08-17T19:47:51.499Z,5.30
2022-08-17T19:52:27.900Z,6.40
2022-08-17T19:57:27.865Z,6.40
2022-08-17T20:02:27.867Z,6.20
2022-08-17T20:07:27.867Z,6.20
2022-08-17T20:12:27.872Z,6.00
2022-08-17T20:17:28.185Z,6.00
2022-08-17T20:22:27.832Z,6.60
2022-08-17T20:27:29.496Z,6.60
2022-08-17T20:32:27.872Z,7.40
2022-08-17T20:37:27.850Z,7.40
2022-08-17T20:42:27.832Z,7.20
2022-08-17T20:47:27.870Z,7.20
2022-08-17T20:52:27.845Z,7.10
2022-08-17T20:57:27.885Z,7.10
2022-08-17T21:02:27.864Z,6.80
2022-08-17T21:07:27.897Z,6.80
2022-08-17T21:12:27.840Z,6.50
2022-08-17T21:17:27.897Z,6.50
2022-08-17T21:22:27.862Z,8.60
2022-08-17T21:27:27.889Z,8.60
2022-08-17T21:32:27.886Z,7.60
2022-08-17T21:37:27.923Z,7.60
2022-08-17T21:42:27.856Z,7.70
2022-08-17T21:47:27.926Z,7.70
2022-08-17T21:52:27.859Z,6.80
2022-08-17T21:57:27.918Z,6.80
2022-08-17T22:02:27.886Z,7.60
2022-08-17T22:07:27.907Z,7.60
2022-08-17T22:12:27.855Z,6.10
2022-08-17T22:17:27.936Z,6.10
2022-08-17T22:22:27.892Z,5.90
2022-08-17T22:27:27.950Z,5.90
2022-08-17T22:32:27.918Z,6.60
2022-08-17T22:37:28.027Z,6.60
2022-08-17T22:42:27.890Z,8.90
2022-08-17T22:47:27.938Z,8.90
2022-08-17T22:52:32.068Z,7.60
2022-08-17T22:57:27.932Z,7.60
2022-08-17T23:02:28.032Z,6.40
2022-08-17T23:07:28.025Z,6.40
2022-08-17T23:12:27.903Z,6.40
2022-08-17T23:17:27.977Z,6.40
2022-08-17T23:22:27.911Z,6.40
2022-08-17T23:27:27.959Z,6.40
2022-08-17T23:32:27.982Z,7.30
2022-08-17T23:37:27.962Z,7.30
2022-08-17T23:42:27.921Z,7.20
2022-08-17T23:47:27.958Z,7.20
2022-08-17T23:52:27.914Z,7.80
2022-08-17T23:57:35.889Z,7.80
